sensor_id;sensor_type;location;lat;lon;timestamp;temperature;humidity
17774;DHT22;9011;33.236;-97.118;2022-10-14T00:01:05;24.00;61.10
17774;DHT22;9011;33.236;-97.118;2022-10-14T00:03:35;23.90;62.80
17774;DHT22;9011;33.236;-97.118;2022-10-14T00:06:04;23.70;63.00
17774;DHT22;9011;33.236;-97.118;2022-10-14T00:08:33;23.50;63.40
17774;DHT22;9011;33.236;-97.118;2022-10-14T00:11:06;23.30;64.20
17774;DHT22;9011;33.236;-97.118;2022-10-14T00:13:35;23.20;64.40
17774;DHT22;9011;33.236;-97.118;2022-10-14T00:16:05;23.00;66.20
17774;DHT22;9011;33.236;-97.118;2022-10-14T00:18:34;22.90;66.00
17774;DHT22;9011;33.236;-97.118;2022-10-14T00:21:03;22.80;66.60
17774;DHT22;9011;33.236;-97.118;2022-10-14T00:23:32;22.60;67.90
17774;DHT22;9011;33.236;-97.118;2022-10-14T00:26:00;22.50;67.80
17774;DHT22;9011;33.236;-97.118;2022-10-14T00:28:29;22.30;67.50
17774;DHT22;9011;33.236;-97.118;2022-10-14T00:30:59;22.20;68.40
17774;DHT22;9011;33.236;-97.118;2022-10-14T00:33:29;22.10;68.60
17774;DHT22;9011;33.236;-97.118;2022-10-14T00:35:59;22.00;68.60
17774;DHT22;9011;33.236;-97.118;2022-10-14T00:38:27;21.80;68.90
17774;DHT22;9011;33.236;-97.118;2022-10-14T00:40:56;21.70;68.60
17774;DHT22;9011;33.236;-97.118;2022-10-14T00:43:26;21.50;69.10
17774;DHT22;9011;33.236;-97.118;2022-10-14T00:45:55;21.50;68.10
17774;DHT22;9011;33.236;-97.118;2022-10-14T00:48:25;21.30;68.00
17774;DHT22;9011;33.236;-97.118;2022-10-14T00:50:56;21.20;68.80
17774;DHT22;9011;33.236;-97.118;2022-10-14T00:53:24;21.20;67.90
17774;DHT22;9011;33.236;-97.118;2022-10-14T00:55:52;21.10;67.10
17774;DHT22;9011;33.236;-97.118;2022-10-14T00:58:21;21.00;68.60
17774;DHT22;9011;33.236;-97.118;2022-10-14T01:00:49;20.90;69.70
17774;DHT22;9011;33.236;-97.118;2022-10-14T01:03:20;20.80;69.30
17774;DHT22;9011;33.236;-97.118;2022-10-14T01:05:53;20.70;69.30
17774;DHT22;9011;33.236;-97.118;2022-10-14T01:08:31;20.60;70.10
17774;DHT22;9011;33.236;-97.118;2022-10-14T01:11:08;20.50;70.60
17774;DHT22;9011;33.236;-97.118;2022-10-14T01:13:42;20.50;70.50
17774;DHT22;9011;33.236;-97.118;2022-10-14T01:16:20;20.40;70.50
17774;DHT22;9011;33.236;-97.118;2022-10-14T01:19:01;20.30;70.40
17774;DHT22;9011;33.236;-97.118;2022-10-14T01:21:36;20.30;71.80
17774;DHT22;9011;33.236;-97.118;2022-10-14T01:24:25;20.20;72.50
17774;DHT22;9011;33.236;-97.118;2022-10-14T01:30:10;20.00;72.00
17774;DHT22;9011;33.236;-97.118;2022-10-14T01:32:54;19.90;72.60
17774;DHT22;9011;33.236;-97.118;2022-10-14T01:35:36;19.90;72.80
17774;DHT22;9011;33.236;-97.118;2022-10-14T01:38:09;19.80;73.60
17774;DHT22;9011;33.236;-97.118;2022-10-14T01:40:42;19.80;73.50
17774;DHT22;9011;33.236;-97.118;2022-10-14T01:43:13;19.70;73.30
17774;DHT22;9011;33.236;-97.118;2022-10-14T01:45:46;19.60;73.50
17774;DHT22;9011;33.236;-97.118;2022-10-14T01:48:17;19.60;73.30
17774;DHT22;9011;33.236;-97.118;2022-10-14T01:50:49;19.50;74.90
17774;DHT22;9011;33.236;-97.118;2022-10-14T01:53:21;19.40;74.10
17774;DHT22;9011;33.236;-97.118;2022-10-14T01:55:52;19.40;74.90
17774;DHT22;9011;33.236;-97.118;2022-10-14T01:58:23;19.40;75.40
17774;DHT22;9011;33.236;-97.118;2022-10-14T02:00:55;19.30;73.60
17774;DHT22;9011;33.236;-97.118;2022-10-14T02:03:24;19.20;73.90
17774;DHT22;9011;33.236;-97.118;2022-10-14T02:05:55;19.20;75.50
17774;DHT22;9011;33.236;-97.118;2022-10-14T02:08:31;19.10;75.20
17774;DHT22;9011;33.236;-97.118;2022-10-14T02:11:07;19.00;75.00
17774;DHT22;9011;33.236;-97.118;2022-10-14T02:13:57;19.00;74.30
17774;DHT22;9011;33.236;-97.118;2022-10-14T02:16:35;19.00;75.20
17774;DHT22;9011;33.236;-97.118;2022-10-14T02:19:14;18.90;75.10
17774;DHT22;9011;33.236;-97.118;2022-10-14T02:21:47;18.80;75.10
17774;DHT22;9011;33.236;-97.118;2022-10-14T02:24:20;18.80;75.50
17774;DHT22;9011;33.236;-97.118;2022-10-14T02:26:50;18.80;75.20
17774;DHT22;9011;33.236;-97.118;2022-10-14T02:29:21;18.70;75.80
17774;DHT22;9011;33.236;-97.118;2022-10-14T02:31:53;18.70;76.70
17774;DHT22;9011;33.236;-97.118;2022-10-14T02:34:24;18.60;77.00
17774;DHT22;9011;33.236;-97.118;2022-10-14T02:36:55;18.60;77.70
17774;DHT22;9011;33.236;-97.118;2022-10-14T02:39:28;18.50;78.10
17774;DHT22;9011;33.236;-97.118;2022-10-14T02:41:57;18.50;79.50
17774;DHT22;9011;33.236;-97.118;2022-10-14T02:44:25;18.40;79.40
17774;DHT22;9011;33.236;-97.118;2022-10-14T02:46:56;18.40;79.30
17774;DHT22;9011;33.236;-97.118;2022-10-14T02:49:24;18.40;78.40
17774;DHT22;9011;33.236;-97.118;2022-10-14T02:51:53;18.20;78.70
17774;DHT22;9011;33.236;-97.118;2022-10-14T02:54:21;18.30;79.20
17774;DHT22;9011;33.236;-97.118;2022-10-14T02:56:49;18.20;78.80
17774;DHT22;9011;33.236;-97.118;2022-10-14T02:59:18;18.00;79.70
17774;DHT22;9011;33.236;-97.118;2022-10-14T03:01:46;17.80;79.50
17774;DHT22;9011;33.236;-97.118;2022-10-14T03:04:16;17.70;79.70
17774;DHT22;9011;33.236;-97.118;2022-10-14T03:06:46;17.70;81.30
17774;DHT22;9011;33.236;-97.118;2022-10-14T03:09:15;17.80;81.80
17774;DHT22;9011;33.236;-97.118;2022-10-14T03:11:43;17.80;80.90
17774;DHT22;9011;33.236;-97.118;2022-10-14T03:14:12;17.70;81.70
17774;DHT22;9011;33.236;-97.118;2022-10-14T03:16:40;17.60;81.60
17774;DHT22;9011;33.236;-97.118;2022-10-14T03:19:08;17.30;80.90
17774;DHT22;9011;33.236;-97.118;2022-10-14T03:21:38;17.00;82.20
17774;DHT22;9011;33.236;-97.118;2022-10-14T03:24:08;17.10;82.40
17774;DHT22;9011;33.236;-97.118;2022-10-14T03:26:36;17.20;83.50
17774;DHT22;9011;33.236;-97.118;2022-10-14T03:29:05;17.20;84.20
17774;DHT22;9011;33.236;-97.118;2022-10-14T03:31:33;17.20;83.50
17774;DHT22;9011;33.236;-97.118;2022-10-14T03:34:02;17.20;83.70
17774;DHT22;9011;33.236;-97.118;2022-10-14T03:36:30;17.20;83.80
17774;DHT22;9011;33.236;-97.118;2022-10-14T03:39:00;17.20;83.50
17774;DHT22;9011;33.236;-97.118;2022-10-14T03:41:29;17.10;84.10
17774;DHT22;9011;33.236;-97.118;2022-10-14T03:43:57;17.00;83.80
17774;DHT22;9011;33.236;-97.118;2022-10-14T03:46:26;16.90;83.90
17774;DHT22;9011;33.236;-97.118;2022-10-14T03:48:54;16.80;83.80
17774;DHT22;9011;33.236;-97.118;2022-10-14T03:51:23;16.90;84.80
17774;DHT22;9011;33.236;-97.118;2022-10-14T03:53:51;16.80;84.80
17774;DHT22;9011;33.236;-97.118;2022-10-14T03:56:21;16.80;84.70
17774;DHT22;9011;33.236;-97.118;2022-10-14T03:58:50;16.80;85.80
17774;DHT22;9011;33.236;-97.118;2022-10-14T04:01:18;16.80;86.20
17774;DHT22;9011;33.236;-97.118;2022-10-14T04:03:46;16.80;86.00
17774;DHT22;9011;33.236;-97.118;2022-10-14T04:06:16;16.70;85.90
17774;DHT22;9011;33.236;-97.118;2022-10-14T04:08:44;16.70;86.30
17774;DHT22;9011;33.236;-97.118;2022-10-14T04:11:13;16.70;86.70
17774;DHT22;9011;33.236;-97.118;2022-10-14T04:13:43;16.50;87.40
17774;DHT22;9011;33.236;-97.118;2022-10-14T04:16:12;16.50;87.30
17774;DHT22;9011;33.236;-97.118;2022-10-14T04:18:40;16.50;87.10
17774;DHT22;9011;33.236;-97.118;2022-10-14T04:21:11;16.50;86.40
17774;DHT22;9011;33.236;-97.118;2022-10-14T04:23:39;16.50;87.10
17774;DHT22;9011;33.236;-97.118;2022-10-14T04:26:08;16.30;87.10
17774;DHT22;9011;33.236;-97.118;2022-10-14T04:28:37;16.30;86.60
17774;DHT22;9011;33.236;-97.118;2022-10-14T04:31:07;16.30;85.60
17774;DHT22;9011;33.236;-97.118;2022-10-14T04:33:35;16.10;86.00
17774;DHT22;9011;33.236;-97.118;2022-10-14T04:36:05;16.20;87.30
17774;DHT22;9011;33.236;-97.118;2022-10-14T04:38:34;16.20;87.00
17774;DHT22;9011;33.236;-97.118;2022-10-14T04:41:03;16.10;88.40
17774;DHT22;9011;33.236;-97.118;2022-10-14T04:43:31;16.10;88.10
17774;DHT22;9011;33.236;-97.118;2022-10-14T04:45:59;16.10;89.00
17774;DHT22;9011;33.236;-97.118;2022-10-14T04:48:29;16.10;89.20
17774;DHT22;9011;33.236;-97.118;2022-10-14T04:50:58;16.10;89.00
17774;DHT22;9011;33.236;-97.118;2022-10-14T04:53:26;16.00;89.90
17774;DHT22;9011;33.236;-97.118;2022-10-14T04:55:54;16.00;89.90
17774;DHT22;9011;33.236;-97.118;2022-10-14T04:58:23;16.00;89.10
17774;DHT22;9011;33.236;-97.118;2022-10-14T05:00:53;15.90;89.70
17774;DHT22;9011;33.236;-97.118;2022-10-14T05:03:22;15.90;90.10
17774;DHT22;9011;33.236;-97.118;2022-10-14T05:05:52;15.90;90.40
17774;DHT22;9011;33.236;-97.118;2022-10-14T05:08:20;15.90;90.10
17774;DHT22;9011;33.236;-97.118;2022-10-14T05:10:49;15.90;90.40
17774;DHT22;9011;33.236;-97.118;2022-10-14T05:13:17;15.60;89.20
17774;DHT22;9011;33.236;-97.118;2022-10-14T05:15:46;15.50;89.30
17774;DHT22;9011;33.236;-97.118;2022-10-14T05:18:15;15.50;90.60
17774;DHT22;9011;33.236;-97.118;2022-10-14T05:20:43;15.60;90.80
17774;DHT22;9011;33.236;-97.118;2022-10-14T05:23:13;15.60;90.70
17774;DHT22;9011;33.236;-97.118;2022-10-14T05:25:41;15.60;90.30
17774;DHT22;9011;33.236;-97.118;2022-10-14T05:28:10;15.60;90.80
17774;DHT22;9011;33.236;-97.118;2022-10-14T05:30:38;15.60;90.90
17774;DHT22;9011;33.236;-97.118;2022-10-14T05:33:07;15.60;91.10
17774;DHT22;9011;33.236;-97.118;2022-10-14T05:35:35;15.60;91.50
17774;DHT22;9011;33.236;-97.118;2022-10-14T05:38:03;15.50;91.30
17774;DHT22;9011;33.236;-97.118;2022-10-14T05:40:34;15.30;90.70
17774;DHT22;9011;33.236;-97.118;2022-10-14T05:43:02;15.40;91.30
17774;DHT22;9011;33.236;-97.118;2022-10-14T05:45:30;15.50;91.30
17774;DHT22;9011;33.236;-97.118;2022-10-14T05:47:59;15.40;91.60
17774;DHT22;9011;33.236;-97.118;2022-10-14T05:50:27;15.40;91.50
17774;DHT22;9011;33.236;-97.118;2022-10-14T05:52:55;15.40;91.90
17774;DHT22;9011;33.236;-97.118;2022-10-14T05:55:24;15.30;92.20
17774;DHT22;9011;33.236;-97.118;2022-10-14T05:57:57;15.30;92.50
17774;DHT22;9011;33.236;-97.118;2022-10-14T06:00:25;15.20;92.10
17774;DHT22;9011;33.236;-97.118;2022-10-14T06:02:55;15.30;92.30
17774;DHT22;9011;33.236;-97.118;2022-10-14T06:05:24;15.20;91.90
17774;DHT22;9011;33.236;-97.118;2022-10-14T06:07:52;15.20;92.30
17774;DHT22;9011;33.236;-97.118;2022-10-14T06:10:21;15.10;92.10
17774;DHT22;9011;33.236;-97.118;2022-10-14T06:12:49;14.90;91.90
17774;DHT22;9011;33.236;-97.118;2022-10-14T06:15:19;14.60;92.20
17774;DHT22;9011;33.236;-97.118;2022-10-14T06:17:48;14.70;93.30
17774;DHT22;9011;33.236;-97.118;2022-10-14T06:20:16;14.80;92.70
17774;DHT22;9011;33.236;-97.118;2022-10-14T06:22:45;14.90;92.70
17774;DHT22;9011;33.236;-97.118;2022-10-14T06:25:14;14.90;93.00
17774;DHT22;9011;33.236;-97.118;2022-10-14T06:27:42;14.90;93.00
17774;DHT22;9011;33.236;-97.118;2022-10-14T06:30:11;14.80;93.30
17774;DHT22;9011;33.236;-97.118;2022-10-14T06:32:42;14.80;93.20
17774;DHT22;9011;33.236;-97.118;2022-10-14T06:35:10;14.80;93.90
17774;DHT22;9011;33.236;-97.118;2022-10-14T06:37:39;14.80;93.60
17774;DHT22;9011;33.236;-97.118;2022-10-14T06:40:08;14.80;93.00
17774;DHT22;9011;33.236;-97.118;2022-10-14T06:42:36;14.80;93.00
17774;DHT22;9011;33.236;-97.118;2022-10-14T06:45:06;14.80;92.70
17774;DHT22;9011;33.236;-97.118;2022-10-14T06:47:34;14.80;93.30
17774;DHT22;9011;33.236;-97.118;2022-10-14T06:50:05;14.80;92.90
17774;DHT22;9011;33.236;-97.118;2022-10-14T06:52:34;14.80;93.60
17774;DHT22;9011;33.236;-97.118;2022-10-14T06:55:02;14.70;93.50
17774;DHT22;9011;33.236;-97.118;2022-10-14T06:57:30;14.70;93.90
17774;DHT22;9011;33.236;-97.118;2022-10-14T06:59:59;14.60;94.30
17774;DHT22;9011;33.236;-97.118;2022-10-14T07:02:27;14.50;93.80
17774;DHT22;9011;33.236;-97.118;2022-10-14T07:04:56;14.40;93.60
17774;DHT22;9011;33.236;-97.118;2022-10-14T07:07:26;14.50;94.20
17774;DHT22;9011;33.236;-97.118;2022-10-14T07:09:54;14.50;94.50
17774;DHT22;9011;33.236;-97.118;2022-10-14T07:12:24;14.50;94.40
17774;DHT22;9011;33.236;-97.118;2022-10-14T07:14:52;14.50;94.70
17774;DHT22;9011;33.236;-97.118;2022-10-14T07:17:21;14.30;94.50
17774;DHT22;9011;33.236;-97.118;2022-10-14T07:19:49;14.10;94.40
17774;DHT22;9011;33.236;-97.118;2022-10-14T07:22:18;14.00;94.50
17774;DHT22;9011;33.236;-97.118;2022-10-14T07:24:48;13.90;94.80
17774;DHT22;9011;33.236;-97.118;2022-10-14T07:27:16;13.90;95.30
17774;DHT22;9011;33.236;-97.118;2022-10-14T07:29:46;14.00;96.10
17774;DHT22;9011;33.236;-97.118;2022-10-14T07:32:14;13.90;96.40
17774;DHT22;9011;33.236;-97.118;2022-10-14T07:34:42;13.70;96.30
17774;DHT22;9011;33.236;-97.118;2022-10-14T07:37:11;13.70;96.80
17774;DHT22;9011;33.236;-97.118;2022-10-14T07:39:39;13.80;97.30
17774;DHT22;9011;33.236;-97.118;2022-10-14T07:42:09;13.90;97.70
17774;DHT22;9011;33.236;-97.118;2022-10-14T07:44:38;13.90;97.40
17774;DHT22;9011;33.236;-97.118;2022-10-14T07:47:06;13.90;97.80
17774;DHT22;9011;33.236;-97.118;2022-10-14T07:49:34;13.90;97.90
17774;DHT22;9011;33.236;-97.118;2022-10-14T07:52:03;13.90;98.30
17774;DHT22;9011;33.236;-97.118;2022-10-14T07:54:32;13.80;98.60
17774;DHT22;9011;33.236;-97.118;2022-10-14T07:57:00;13.80;98.30
17774;DHT22;9011;33.236;-97.118;2022-10-14T07:59:30;13.80;98.60
17774;DHT22;9011;33.236;-97.118;2022-10-14T08:01:58;13.80;98.80
17774;DHT22;9011;33.236;-97.118;2022-10-14T08:04:27;13.70;98.80
17774;DHT22;9011;33.236;-97.118;2022-10-14T08:06:55;13.70;98.80
17774;DHT22;9011;33.236;-97.118;2022-10-14T08:09:24;13.60;99.10
17774;DHT22;9011;33.236;-97.118;2022-10-14T08:11:52;13.50;99.50
17774;DHT22;9011;33.236;-97.118;2022-10-14T08:14:21;13.40;99.50
17774;DHT22;9011;33.236;-97.118;2022-10-14T08:16:51;13.30;99.90
17774;DHT22;9011;33.236;-97.118;2022-10-14T08:19:19;13.30;99.90
17774;DHT22;9011;33.236;-97.118;2022-10-14T08:21:48;13.30;99.90
17774;DHT22;9011;33.236;-97.118;2022-10-14T08:24:16;13.30;99.90
17774;DHT22;9011;33.236;-97.118;2022-10-14T08:26:49;13.20;99.90
17774;DHT22;9011;33.236;-97.118;2022-10-14T08:29:18;13.30;99.90
17774;DHT22;9011;33.236;-97.118;2022-10-14T08:31:51;13.30;99.90
17774;DHT22;9011;33.236;-97.118;2022-10-14T08:34:20;13.30;99.90
17774;DHT22;9011;33.236;-97.118;2022-10-14T08:36:50;13.20;99.90
17774;DHT22;9011;33.236;-97.118;2022-10-14T08:39:18;13.10;99.90
17774;DHT22;9011;33.236;-97.118;2022-10-14T08:42:11;13.20;99.90
17774;DHT22;9011;33.236;-97.118;2022-10-14T08:44:46;13.20;99.90
17774;DHT22;9011;33.236;-97.118;2022-10-14T08:47:21;13.20;99.90
17774;DHT22;9011;33.236;-97.118;2022-10-14T08:49:58;13.20;99.90
17774;DHT22;9011;33.236;-97.118;2022-10-14T08:52:31;13.10;99.90
17774;DHT22;9011;33.236;-97.118;2022-10-14T08:55:03;13.10;99.90
17774;DHT22;9011;33.236;-97.118;2022-10-14T08:57:42;13.10;99.90
17774;DHT22;9011;33.236;-97.118;2022-10-14T09:00:12;13.00;99.90
17774;DHT22;9011;33.236;-97.118;2022-10-14T09:02:46;13.00;99.90
17774;DHT22;9011;33.236;-97.118;2022-10-14T09:05:15;13.00;99.90
17774;DHT22;9011;33.236;-97.118;2022-10-14T09:07:45;13.10;99.90
17774;DHT22;9011;33.236;-97.118;2022-10-14T09:10:21;13.00;99.90
17774;DHT22;9011;33.236;-97.118;2022-10-14T09:12:55;12.90;99.90
17774;DHT22;9011;33.236;-97.118;2022-10-14T09:15:32;13.00;99.90
17774;DHT22;9011;33.236;-97.118;2022-10-14T09:18:04;13.00;99.90
17774;DHT22;9011;33.236;-97.118;2022-10-14T09:20:33;13.00;99.90
17774;DHT22;9011;33.236;-97.118;2022-10-14T09:23:12;13.00;99.90
17774;DHT22;9011;33.236;-97.118;2022-10-14T09:25:49;12.90;99.90
17774;DHT22;9011;33.236;-97.118;2022-10-14T09:28:18;13.00;99.90
17774;DHT22;9011;33.236;-97.118;2022-10-14T09:30:46;13.00;99.90
17774;DHT22;9011;33.236;-97.118;2022-10-14T09:33:18;13.00;99.90
17774;DHT22;9011;33.236;-97.118;2022-10-14T09:35:47;13.00;99.90
17774;DHT22;9011;33.236;-97.118;2022-10-14T09:38:17;13.00;99.90
17774;DHT22;9011;33.236;-97.118;2022-10-14T09:40:47;13.00;99.90
17774;DHT22;9011;33.236;-97.118;2022-10-14T09:43:18;12.90;99.90
17774;DHT22;9011;33.236;-97.118;2022-10-14T09:45:55;12.90;99.90
17774;DHT22;9011;33.236;-97.118;2022-10-14T09:48:38;13.00;99.90
17774;DHT22;9011;33.236;-97.118;2022-10-14T09:51:18;13.00;99.90
17774;DHT22;9011;33.236;-97.118;2022-10-14T09:53:50;13.00;99.90
17774;DHT22;9011;33.236;-97.118;2022-10-14T09:56:27;13.00;99.90
17774;DHT22;9011;33.236;-97.118;2022-10-14T09:58:57;13.00;99.90
17774;DHT22;9011;33.236;-97.118;2022-10-14T10:01:27;13.00;99.90
17774;DHT22;9011;33.236;-97.118;2022-10-14T10:04:24;13.00;99.90
17774;DHT22;9011;33.236;-97.118;2022-10-14T10:06:55;13.00;99.90
17774;DHT22;9011;33.236;-97.118;2022-10-14T10:09:23;13.00;99.90
17774;DHT22;9011;33.236;-97.118;2022-10-14T10:11:52;13.00;99.90
17774;DHT22;9011;33.236;-97.118;2022-10-14T10:14:23;13.00;99.90
17774;DHT22;9011;33.236;-97.118;2022-10-14T10:17:10;13.10;99.90
17774;DHT22;9011;33.236;-97.118;2022-10-14T10:19:43;13.10;99.90
17774;DHT22;9011;33.236;-97.118;2022-10-14T10:22:23;13.20;99.90
17774;DHT22;9011;33.236;-97.118;2022-10-14T10:27:42;13.20;99.90
17774;DHT22;9011;33.236;-97.118;2022-10-14T10:30:21;13.20;99.90
17774;DHT22;9011;33.236;-97.118;2022-10-14T10:32:56;13.20;99.90
17774;DHT22;9011;33.236;-97.118;2022-10-14T10:35:47;13.20;99.90
17774;DHT22;9011;33.236;-97.118;2022-10-14T10:38:23;13.20;99.90
17774;DHT22;9011;33.236;-97.118;2022-10-14T10:41:07;13.20;99.90
17774;DHT22;9011;33.236;-97.118;2022-10-14T10:44:00;13.30;99.90
17774;DHT22;9011;33.236;-97.118;2022-10-14T10:49:52;13.10;99.90
17774;DHT22;9011;33.236;-97.118;2022-10-14T10:52:30;13.20;99.90
17774;DHT22;9011;33.236;-97.118;2022-10-14T10:55:11;13.20;99.90
17774;DHT22;9011;33.236;-97.118;2022-10-14T10:57:49;13.00;99.90
17774;DHT22;9011;33.236;-97.118;2022-10-14T11:00:21;12.90;99.90
17774;DHT22;9011;33.236;-97.118;2022-10-14T11:02:58;12.80;99.90
17774;DHT22;9011;33.236;-97.118;2022-10-14T11:05:45;12.80;99.90
17774;DHT22;9011;33.236;-97.118;2022-10-14T11:11:30;12.70;99.90
17774;DHT22;9011;33.236;-97.118;2022-10-14T11:14:39;12.50;99.90
17774;DHT22;9011;33.236;-97.118;2022-10-14T11:17:18;12.40;99.90
17774;DHT22;9011;33.236;-97.118;2022-10-14T11:19:52;12.50;99.90
17774;DHT22;9011;33.236;-97.118;2022-10-14T11:22:34;12.50;99.90
17774;DHT22;9011;33.236;-97.118;2022-10-14T11:25:18;12.50;99.90
17774;DHT22;9011;33.236;-97.118;2022-10-14T11:27:53;12.40;99.90
17774;DHT22;9011;33.236;-97.118;2022-10-14T11:30:35;12.40;99.90
17774;DHT22;9011;33.236;-97.118;2022-10-14T11:33:27;12.40;99.90
17774;DHT22;9011;33.236;-97.118;2022-10-14T11:36:08;12.50;99.90
17774;DHT22;9011;33.236;-97.118;2022-10-14T11:39:01;12.50;99.90
17774;DHT22;9011;33.236;-97.118;2022-10-14T11:41:46;12.40;99.90
17774;DHT22;9011;33.236;-97.118;2022-10-14T11:44:23;12.40;99.90
17774;DHT22;9011;33.236;-97.118;2022-10-14T11:46:55;12.40;99.90
17774;DHT22;9011;33.236;-97.118;2022-10-14T11:49:29;12.40;99.90
17774;DHT22;9011;33.236;-97.118;2022-10-14T11:52:02;12.30;99.90
17774;DHT22;9011;33.236;-97.118;2022-10-14T11:54:35;12.30;99.90
17774;DHT22;9011;33.236;-97.118;2022-10-14T11:57:09;12.30;99.90
17774;DHT22;9011;33.236;-97.118;2022-10-14T11:59:45;12.30;99.90
17774;DHT22;9011;33.236;-97.118;2022-10-14T12:02:20;12.30;99.90
17774;DHT22;9011;33.236;-97.118;2022-10-14T12:04:57;12.30;99.90
17774;DHT22;9011;33.236;-97.118;2022-10-14T12:07:31;12.20;99.90
17774;DHT22;9011;33.236;-97.118;2022-10-14T12:10:08;12.20;99.90
17774;DHT22;9011;33.236;-97.118;2022-10-14T12:12:42;12.10;99.90
17774;DHT22;9011;33.236;-97.118;2022-10-14T12:15:16;12.10;99.90
17774;DHT22;9011;33.236;-97.118;2022-10-14T12:17:48;12.10;99.90
17774;DHT22;9011;33.236;-97.118;2022-10-14T12:20:31;12.10;99.90
17774;DHT22;9011;33.236;-97.118;2022-10-14T12:23:02;12.00;99.90
17774;DHT22;9011;33.236;-97.118;2022-10-14T12:25:37;12.00;99.90
17774;DHT22;9011;33.236;-97.118;2022-10-14T12:28:17;12.10;99.90
17774;DHT22;9011;33.236;-97.118;2022-10-14T12:30:46;12.10;99.90
17774;DHT22;9011;33.236;-97.118;2022-10-14T12:33:16;12.10;99.90
17774;DHT22;9011;33.236;-97.118;2022-10-14T12:35:50;12.10;99.90
17774;DHT22;9011;33.236;-97.118;2022-10-14T12:38:20;12.10;99.90
17774;DHT22;9011;33.236;-97.118;2022-10-14T12:40:49;12.10;99.90
17774;DHT22;9011;33.236;-97.118;2022-10-14T12:43:26;12.20;99.90
17774;DHT22;9011;33.236;-97.118;2022-10-14T12:46:09;12.20;99.90
17774;DHT22;9011;33.236;-97.118;2022-10-14T12:48:45;12.30;99.90
17774;DHT22;9011;33.236;-97.118;2022-10-14T12:51:17;12.30;99.90
17774;DHT22;9011;33.236;-97.118;2022-10-14T12:53:51;12.40;99.90
17774;DHT22;9011;33.236;-97.118;2022-10-14T12:56:29;12.40;99.90
17774;DHT22;9011;33.236;-97.118;2022-10-14T12:59:03;12.40;99.90
17774;DHT22;9011;33.236;-97.118;2022-10-14T13:01:34;12.50;99.90
17774;DHT22;9011;33.236;-97.118;2022-10-14T13:04:06;12.50;99.90
17774;DHT22;9011;33.236;-97.118;2022-10-14T13:06:37;12.60;99.90
17774;DHT22;9011;33.236;-97.118;2022-10-14T13:12:40;12.50;99.90
17774;DHT22;9011;33.236;-97.118;2022-10-14T13:18:51;12.50;99.90
17774;DHT22;9011;33.236;-97.118;2022-10-14T13:24:18;12.40;99.90
17774;DHT22;9011;33.236;-97.118;2022-10-14T13:27:02;12.40;99.90
17774;DHT22;9011;33.236;-97.118;2022-10-14T13:29:44;12.40;99.90
17774;DHT22;9011;33.236;-97.118;2022-10-14T13:32:26;12.50;99.90
17774;DHT22;9011;33.236;-97.118;2022-10-14T13:35:06;12.50;99.90
17774;DHT22;9011;33.236;-97.118;2022-10-14T13:37:38;12.60;99.90
17774;DHT22;9011;33.236;-97.118;2022-10-14T13:40:18;12.70;99.90
17774;DHT22;9011;33.236;-97.118;2022-10-14T13:42:50;12.70;99.90
17774;DHT22;9011;33.236;-97.118;2022-10-14T13:45:21;12.80;99.90
17774;DHT22;9011;33.236;-97.118;2022-10-14T13:47:52;12.90;99.90
17774;DHT22;9011;33.236;-97.118;2022-10-14T13:50:24;13.00;99.90
17774;DHT22;9011;33.236;-97.118;2022-10-14T13:52:57;13.20;99.90
17774;DHT22;9011;33.236;-97.118;2022-10-14T13:55:27;13.30;99.90
17774;DHT22;9011;33.236;-97.118;2022-10-14T13:58:07;13.40;99.90
17774;DHT22;9011;33.236;-97.118;2022-10-14T14:00:37;13.70;99.90
17774;DHT22;9011;33.236;-97.118;2022-10-14T14:03:16;13.90;99.90
17774;DHT22;9011;33.236;-97.118;2022-10-14T14:05:48;14.20;99.90
17774;DHT22;9011;33.236;-97.118;2022-10-14T14:08:20;14.60;99.90
17774;DHT22;9011;33.236;-97.118;2022-10-14T14:10:54;14.90;99.90
17774;DHT22;9011;33.236;-97.118;2022-10-14T14:13:26;15.20;99.90
17774;DHT22;9011;33.236;-97.118;2022-10-14T14:15:55;15.50;99.90
17774;DHT22;9011;33.236;-97.118;2022-10-14T14:18:32;15.70;99.90
17774;DHT22;9011;33.236;-97.118;2022-10-14T14:21:03;15.90;99.90
17774;DHT22;9011;33.236;-97.118;2022-10-14T14:23:32;16.10;99.90
17774;DHT22;9011;33.236;-97.118;2022-10-14T14:26:00;16.40;99.90
17774;DHT22;9011;33.236;-97.118;2022-10-14T14:28:31;16.60;99.90
17774;DHT22;9011;33.236;-97.118;2022-10-14T14:30:59;16.90;99.90
17774;DHT22;9011;33.236;-97.118;2022-10-14T14:33:30;17.20;99.90
17774;DHT22;9011;33.236;-97.118;2022-10-14T14:36:02;17.40;99.90
17774;DHT22;9011;33.236;-97.118;2022-10-14T14:38:32;17.70;99.50
17774;DHT22;9011;33.236;-97.118;2022-10-14T14:41:02;18.00;98.50
17774;DHT22;9011;33.236;-97.118;2022-10-14T14:43:32;18.20;98.40
17774;DHT22;9011;33.236;-97.118;2022-10-14T14:46:02;18.40;97.70
17774;DHT22;9011;33.236;-97.118;2022-10-14T14:48:32;18.70;96.80
17774;DHT22;9011;33.236;-97.118;2022-10-14T14:51:02;19.00;95.60
17774;DHT22;9011;33.236;-97.118;2022-10-14T14:53:31;19.30;95.20
17774;DHT22;9011;33.236;-97.118;2022-10-14T14:56:02;19.50;94.60
17774;DHT22;9011;33.236;-97.118;2022-10-14T14:58:35;19.70;93.90
17774;DHT22;9011;33.236;-97.118;2022-10-14T15:01:05;19.90;93.90
17774;DHT22;9011;33.236;-97.118;2022-10-14T15:03:50;20.20;93.00
17774;DHT22;9011;33.236;-97.118;2022-10-14T15:06:20;20.40;92.20
17774;DHT22;9011;33.236;-97.118;2022-10-14T15:08:51;20.60;91.60
17774;DHT22;9011;33.236;-97.118;2022-10-14T15:11:21;20.80;91.10
17774;DHT22;9011;33.236;-97.118;2022-10-14T15:13:51;21.00;91.30
17774;DHT22;9011;33.236;-97.118;2022-10-14T15:16:37;21.20;90.50
17774;DHT22;9011;33.236;-97.118;2022-10-14T15:19:28;21.40;90.60
17774;DHT22;9011;33.236;-97.118;2022-10-14T15:25:02;21.90;89.30
17774;DHT22;9011;33.236;-97.118;2022-10-14T15:27:40;22.10;89.10
17774;DHT22;9011;33.236;-97.118;2022-10-14T15:30:24;22.30;86.80
17774;DHT22;9011;33.236;-97.118;2022-10-14T15:32:58;22.40;87.40
17774;DHT22;9011;33.236;-97.118;2022-10-14T15:35:27;22.70;85.60
17774;DHT22;9011;33.236;-97.118;2022-10-14T15:37:56;22.80;84.50
17774;DHT22;9011;33.236;-97.118;2022-10-14T15:40:28;23.00;83.90
17774;DHT22;9011;33.236;-97.118;2022-10-14T15:42:57;23.20;84.50
17774;DHT22;9011;33.236;-97.118;2022-10-14T15:45:26;23.40;84.20
17774;DHT22;9011;33.236;-97.118;2022-10-14T15:47:56;23.60;83.90
17774;DHT22;9011;33.236;-97.118;2022-10-14T15:50:25;23.80;82.30
17774;DHT22;9011;33.236;-97.118;2022-10-14T15:52:54;24.00;81.10
17774;DHT22;9011;33.236;-97.118;2022-10-14T15:55:27;24.30;81.50
17774;DHT22;9011;33.236;-97.118;2022-10-14T15:58:01;24.40;79.10
17774;DHT22;9011;33.236;-97.118;2022-10-14T16:00:30;24.60;77.60
17774;DHT22;9011;33.236;-97.118;2022-10-14T16:02:59;24.70;75.90
17774;DHT22;9011;33.236;-97.118;2022-10-14T16:05:29;24.90;75.40
17774;DHT22;9011;33.236;-97.118;2022-10-14T16:07:57;25.00;75.30
17774;DHT22;9011;33.236;-97.118;2022-10-14T16:10:27;25.30;73.40